sensor_id;sensor_type;location;lat;lon;timestamp;temperature;humidity
21895;DHT22;11112;51.270;7.224;2023-03-14T00:01:21;12.10;99.90
21895;DHT22;11112;51.270;7.224;2023-03-14T00:03:49;12.10;99.90
21895;DHT22;11112;51.270;7.224;2023-03-14T00:06:18;12.10;99.90
21895;DHT22;11112;51.270;7.224;2023-03-14T00:08:48;12.10;99.90
21895;DHT22;11112;51.270;7.224;2023-03-14T00:11:20;12.10;99.90
21895;DHT22;11112;51.270;7.224;2023-03-14T00:13:48;12.10;99.90
21895;DHT22;11112;51.270;7.224;2023-03-14T00:16:17;12.10;99.90
21895;DHT22;11112;51.270;7.224;2023-03-14T00:18:45;12.10;99.90
21895;DHT22;11112;51.270;7.224;2023-03-14T00:21:12;12.10;99.90
21895;DHT22;11112;51.270;7.224;2023-03-14T00:23:41;12.10;99.90
21895;DHT22;11112;51.270;7.224;2023-03-14T00:26:12;12.10;99.90
21895;DHT22;11112;51.270;7.224;2023-03-14T00:28:41;12.10;99.90
21895;DHT22;11112;51.270;7.224;2023-03-14T00:31:11;12.10;99.90
21895;DHT22;11112;51.270;7.224;2023-03-14T00:33:40;12.10;99.90
21895;DHT22;11112;51.270;7.224;2023-03-14T00:36:10;12.10;99.90
21895;DHT22;11112;51.270;7.224;2023-03-14T00:38:40;12.10;99.90
21895;DHT22;11112;51.270;7.224;2023-03-14T00:41:11;12.10;99.90
21895;DHT22;11112;51.270;7.224;2023-03-14T00:43:40;12.10;99.90
21895;DHT22;11112;51.270;7.224;2023-03-14T00:46:08;12.00;99.90
21895;DHT22;11112;51.270;7.224;2023-03-14T00:48:36;12.10;99.90
21895;DHT22;11112;51.270;7.224;2023-03-14T00:51:05;12.10;99.90
21895;DHT22;11112;51.270;7.224;2023-03-14T00:53:40;12.10;99.90
21895;DHT22;11112;51.270;7.224;2023-03-14T00:56:11;12.10;99.90
21895;DHT22;11112;51.270;7.224;2023-03-14T00:58:39;12.10;99.90
21895;DHT22;11112;51.270;7.224;2023-03-14T01:01:08;12.10;99.90
21895;DHT22;11112;51.270;7.224;2023-03-14T01:03:37;12.10;99.90
21895;DHT22;11112;51.270;7.224;2023-03-14T01:06:09;12.10;99.90
21895;DHT22;11112;51.270;7.224;2023-03-14T01:08:38;12.10;99.90
21895;DHT22;11112;51.270;7.224;2023-03-14T01:11:07;12.00;99.90
21895;DHT22;11112;51.270;7.224;2023-03-14T01:13:36;12.10;99.90
21895;DHT22;11112;51.270;7.224;2023-03-14T01:16:05;12.10;99.90
21895;DHT22;11112;51.270;7.224;2023-03-14T01:18:34;12.00;99.90
21895;DHT22;11112;51.270;7.224;2023-03-14T01:21:02;12.00;99.90
21895;DHT22;11112;51.270;7.224;2023-03-14T01:23:30;11.90;99.90
21895;DHT22;11112;51.270;7.224;2023-03-14T01:25:58;11.90;99.90
21895;DHT22;11112;51.270;7.224;2023-03-14T01:28:25;11.90;99.90
21895;DHT22;11112;51.270;7.224;2023-03-14T01:30:54;11.90;99.90
21895;DHT22;11112;51.270;7.224;2023-03-14T01:33:21;11.80;99.90
21895;DHT22;11112;51.270;7.224;2023-03-14T01:35:50;11.80;99.90
21895;DHT22;11112;51.270;7.224;2023-03-14T01:38:17;11.80;99.90
21895;DHT22;11112;51.270;7.224;2023-03-14T01:40:45;11.80;99.90
21895;DHT22;11112;51.270;7.224;2023-03-14T01:43:15;11.80;99.90
21895;DHT22;11112;51.270;7.224;2023-03-14T01:46:19;11.80;99.90
21895;DHT22;11112;51.270;7.224;2023-03-14T01:48:53;11.80;99.90
21895;DHT22;11112;51.270;7.224;2023-03-14T01:51:27;11.70;99.90
21895;DHT22;11112;51.270;7.224;2023-03-14T01:54:06;11.70;99.90
21895;DHT22;11112;51.270;7.224;2023-03-14T01:56:39;11.70;99.90
21895;DHT22;11112;51.270;7.224;2023-03-14T01:59:08;11.60;99.90
21895;DHT22;11112;51.270;7.224;2023-03-14T02:01:44;11.60;99.90
21895;DHT22;11112;51.270;7.224;2023-03-14T02:04:14;11.60;99.90
21895;DHT22;11112;51.270;7.224;2023-03-14T02:06:49;11.60;99.90
21895;DHT22;11112;51.270;7.224;2023-03-14T02:09:20;11.60;99.90
21895;DHT22;11112;51.270;7.224;2023-03-14T02:11:49;11.60;99.90
21895;DHT22;11112;51.270;7.224;2023-03-14T02:14:30;11.60;99.90
21895;DHT22;11112;51.270;7.224;2023-03-14T02:17:00;11.50;99.90
21895;DHT22;11112;51.270;7.224;2023-03-14T02:19:40;11.60;99.90
21895;DHT22;11112;51.270;7.224;2023-03-14T02:22:18;11.60;99.90
21895;DHT22;11112;51.270;7.224;2023-03-14T02:24:53;11.60;99.90
21895;DHT22;11112;51.270;7.224;2023-03-14T02:27:27;11.60;99.90
21895;DHT22;11112;51.270;7.224;2023-03-14T02:29:58;11.60;99.90
21895;DHT22;11112;51.270;7.224;2023-03-14T02:32:30;11.60;99.90
21895;DHT22;11112;51.270;7.224;2023-03-14T02:35:01;11.50;99.90
21895;DHT22;11112;51.270;7.224;2023-03-14T02:37:36;11.60;99.90
21895;DHT22;11112;51.270;7.224;2023-03-14T02:40:07;11.50;99.90
21895;DHT22;11112;51.270;7.224;2023-03-14T02:42:36;11.50;99.90
21895;DHT22;11112;51.270;7.224;2023-03-14T02:48:16;11.50;99.90
21895;DHT22;11112;51.270;7.224;2023-03-14T02:50:47;11.40;99.90
21895;DHT22;11112;51.270;7.224;2023-03-14T02:53:18;11.40;99.90
21895;DHT22;11112;51.270;7.224;2023-03-14T02:55:49;11.40;99.90
21895;DHT22;11112;51.270;7.224;2023-03-14T02:58:19;11.40;99.90
21895;DHT22;11112;51.270;7.224;2023-03-14T03:00:47;11.40;99.90
21895;DHT22;11112;51.270;7.224;2023-03-14T03:03:15;11.40;99.90
21895;DHT22;11112;51.270;7.224;2023-03-14T03:05:42;11.40;99.90
21895;DHT22;11112;51.270;7.224;2023-03-14T03:08:11;11.40;99.90
21895;DHT22;11112;51.270;7.224;2023-03-14T03:10:38;11.50;99.90
21895;DHT22;11112;51.270;7.224;2023-03-14T03:13:06;11.40;99.90
21895;DHT22;11112;51.270;7.224;2023-03-14T03:15:35;11.40;99.90
21895;DHT22;11112;51.270;7.224;2023-03-14T03:18:02;11.50;99.90
21895;DHT22;11112;51.270;7.224;2023-03-14T03:20:30;11.40;99.90
21895;DHT22;11112;51.270;7.224;2023-03-14T03:22:58;11.40;99.90
21895;DHT22;11112;51.270;7.224;2023-03-14T03:25:26;11.40;99.90
21895;DHT22;11112;51.270;7.224;2023-03-14T03:27:53;11.40;99.90
21895;DHT22;11112;51.270;7.224;2023-03-14T03:30:21;11.40;99.90
21895;DHT22;11112;51.270;7.224;2023-03-14T03:32:51;11.40;99.90
21895;DHT22;11112;51.270;7.224;2023-03-14T03:35:19;11.40;99.90
21895;DHT22;11112;51.270;7.224;2023-03-14T03:37:46;11.40;99.90
21895;DHT22;11112;51.270;7.224;2023-03-14T03:40:13;11.40;99.90
21895;DHT22;11112;51.270;7.224;2023-03-14T03:42:41;11.40;99.90
21895;DHT22;11112;51.270;7.224;2023-03-14T03:45:09;11.40;99.90
21895;DHT22;11112;51.270;7.224;2023-03-14T03:47:36;11.40;99.90
21895;DHT22;11112;51.270;7.224;2023-03-14T03:50:06;11.40;99.90
21895;DHT22;11112;51.270;7.224;2023-03-14T03:52:35;11.40;99.90
21895;DHT22;11112;51.270;7.224;2023-03-14T03:55:04;11.40;99.90
21895;DHT22;11112;51.270;7.224;2023-03-14T03:57:32;11.40;99.90
21895;DHT22;11112;51.270;7.224;2023-03-14T03:59:59;11.30;99.90
21895;DHT22;11112;51.270;7.224;2023-03-14T04:02:26;11.40;99.90
21895;DHT22;11112;51.270;7.224;2023-03-14T04:04:54;11.30;99.90
21895;DHT22;11112;51.270;7.224;2023-03-14T04:07:23;11.30;99.90
21895;DHT22;11112;51.270;7.224;2023-03-14T04:09:52;11.40;99.90
21895;DHT22;11112;51.270;7.224;2023-03-14T04:12:20;11.40;99.90
21895;DHT22;11112;51.270;7.224;2023-03-14T04:14:47;11.40;99.90
21895;DHT22;11112;51.270;7.224;2023-03-14T04:17:15;11.40;99.90
21895;DHT22;11112;51.270;7.224;2023-03-14T04:19:42;11.40;99.90
21895;DHT22;11112;51.270;7.224;2023-03-14T04:22:10;11.40;99.90
21895;DHT22;11112;51.270;7.224;2023-03-14T04:24:39;11.40;99.90
21895;DHT22;11112;51.270;7.224;2023-03-14T04:27:06;11.40;99.90
21895;DHT22;11112;51.270;7.224;2023-03-14T04:29:33;11.40;99.90
21895;DHT22;11112;51.270;7.224;2023-03-14T04:32:00;11.40;99.90
21895;DHT22;11112;51.270;7.224;2023-03-14T04:34:27;11.40;99.90
21895;DHT22;11112;51.270;7.224;2023-03-14T04:36:55;11.40;99.90
21895;DHT22;11112;51.270;7.224;2023-03-14T04:39:22;11.40;99.90
21895;DHT22;11112;51.270;7.224;2023-03-14T04:41:51;11.40;99.90
21895;DHT22;11112;51.270;7.224;2023-03-14T04:44:19;11.40;99.90
21895;DHT22;11112;51.270;7.224;2023-03-14T04:46:47;11.40;99.90
21895;DHT22;11112;51.270;7.224;2023-03-14T04:49:14;11.40;99.90
21895;DHT22;11112;51.270;7.224;2023-03-14T04:51:42;11.30;99.90
21895;DHT22;11112;51.270;7.224;2023-03-14T04:54:09;11.30;99.90
21895;DHT22;11112;51.270;7.224;2023-03-14T04:56:37;11.30;99.90
21895;DHT22;11112;51.270;7.224;2023-03-14T04:59:06;11.30;99.90
21895;DHT22;11112;51.270;7.224;2023-03-14T05:01:35;11.30;99.90
21895;DHT22;11112;51.270;7.224;2023-03-14T05:04:03;11.30;99.90
21895;DHT22;11112;51.270;7.224;2023-03-14T05:06:30;11.20;99.90
21895;DHT22;11112;51.270;7.224;2023-03-14T05:08:57;11.30;99.90
21895;DHT22;11112;51.270;7.224;2023-03-14T05:11:25;11.20;99.90
21895;DHT22;11112;51.270;7.224;2023-03-14T05:13:52;11.20;99.90
21895;DHT22;11112;51.270;7.224;2023-03-14T05:16:21;11.20;99.90
21895;DHT22;11112;51.270;7.224;2023-03-14T05:18:48;11.30;99.90
21895;DHT22;11112;51.270;7.224;2023-03-14T05:21:16;11.20;99.90
21895;DHT22;11112;51.270;7.224;2023-03-14T05:23:45;11.20;99.90
21895;DHT22;11112;51.270;7.224;2023-03-14T05:26:13;11.20;99.90
21895;DHT22;11112;51.270;7.224;2023-03-14T05:28:42;11.20;99.90
21895;DHT22;11112;51.270;7.224;2023-03-14T05:31:09;11.20;99.90
21895;DHT22;11112;51.270;7.224;2023-03-14T05:33:39;11.20;99.90
21895;DHT22;11112;51.270;7.224;2023-03-14T05:36:08;11.20;99.90
21895;DHT22;11112;51.270;7.224;2023-03-14T05:38:35;11.20;99.90
21895;DHT22;11112;51.270;7.224;2023-03-14T05:41:03;11.20;99.90
21895;DHT22;11112;51.270;7.224;2023-03-14T05:43:31;11.20;99.90
21895;DHT22;11112;51.270;7.224;2023-03-14T05:45:59;11.20;99.90
21895;DHT22;11112;51.270;7.224;2023-03-14T05:48:26;11.20;99.90
21895;DHT22;11112;51.270;7.224;2023-03-14T05:50:58;11.20;99.90
21895;DHT22;11112;51.270;7.224;2023-03-14T05:53:26;11.20;99.90
21895;DHT22;11112;51.270;7.224;2023-03-14T05:55:56;11.10;99.90
21895;DHT22;11112;51.270;7.224;2023-03-14T05:58:24;11.20;99.90
21895;DHT22;11112;51.270;7.224;2023-03-14T06:00:52;11.20;99.90
21895;DHT22;11112;51.270;7.224;2023-03-14T06:03:21;11.20;99.90
21895;DHT22;11112;51.270;7.224;2023-03-14T06:05:50;11.20;99.90
21895;DHT22;11112;51.270;7.224;2023-03-14T06:08:19;11.20;99.90
21895;DHT22;11112;51.270;7.224;2023-03-14T06:10:46;11.10;99.90
21895;DHT22;11112;51.270;7.224;2023-03-14T06:13:15;11.10;99.90
21895;DHT22;11112;51.270;7.224;2023-03-14T06:15:43;11.20;99.90
21895;DHT22;11112;51.270;7.224;2023-03-14T06:18:10;11.10;99.90
21895;DHT22;11112;51.270;7.224;2023-03-14T06:20:40;11.10;99.90
21895;DHT22;11112;51.270;7.224;2023-03-14T06:23:09;11.10;99.90
21895;DHT22;11112;51.270;7.224;2023-03-14T06:25:39;11.10;99.90
21895;DHT22;11112;51.270;7.224;2023-03-14T06:28:06;11.10;99.90
21895;DHT22;11112;51.270;7.224;2023-03-14T06:30:34;11.10;99.90
21895;DHT22;11112;51.270;7.224;2023-03-14T06:33:01;11.10;99.90
21895;DHT22;11112;51.270;7.224;2023-03-14T06:35:28;11.20;99.90
21895;DHT22;11112;51.270;7.224;2023-03-14T06:37:57;11.10;99.90
21895;DHT22;11112;51.270;7.224;2023-03-14T06:40:24;11.10;99.90
21895;DHT22;11112;51.270;7.224;2023-03-14T06:42:54;11.10;99.90
21895;DHT22;11112;51.270;7.224;2023-03-14T06:45:21;11.10;99.90
21895;DHT22;11112;51.270;7.224;2023-03-14T06:47:49;11.20;99.90
21895;DHT22;11112;51.270;7.224;2023-03-14T06:50:17;11.10;99.90
21895;DHT22;11112;51.270;7.224;2023-03-14T06:52:45;11.10;99.90
21895;DHT22;11112;51.270;7.224;2023-03-14T06:55:13;11.10;99.90
21895;DHT22;11112;51.270;7.224;2023-03-14T06:57:43;11.10;99.90
21895;DHT22;11112;51.270;7.224;2023-03-14T07:00:15;11.10;99.90
21895;DHT22;11112;51.270;7.224;2023-03-14T07:02:43;11.10;99.90
21895;DHT22;11112;51.270;7.224;2023-03-14T07:05:10;11.20;99.90
21895;DHT22;11112;51.270;7.224;2023-03-14T07:07:38;11.10;99.90
21895;DHT22;11112;51.270;7.224;2023-03-14T07:10:08;11.10;99.90
21895;DHT22;11112;51.270;7.224;2023-03-14T07:12:36;11.20;99.90
21895;DHT22;11112;51.270;7.224;2023-03-14T07:15:05;11.20;99.90
21895;DHT22;11112;51.270;7.224;2023-03-14T07:17:35;11.20;99.90
21895;DHT22;11112;51.270;7.224;2023-03-14T07:20:05;11.20;99.90
21895;DHT22;11112;51.270;7.224;2023-03-14T07:22:35;11.10;99.90
21895;DHT22;11112;51.270;7.224;2023-03-14T07:25:04;11.10;99.90
21895;DHT22;11112;51.270;7.224;2023-03-14T07:27:32;11.10;99.90
21895;DHT22;11112;51.270;7.224;2023-03-14T07:29:59;11.20;99.90
21895;DHT22;11112;51.270;7.224;2023-03-14T07:32:27;11.20;99.90
21895;DHT22;11112;51.270;7.224;2023-03-14T07:34:55;11.20;99.90
21895;DHT22;11112;51.270;7.224;2023-03-14T07:37:22;11.20;99.90
21895;DHT22;11112;51.270;7.224;2023-03-14T07:39:50;11.20;99.90
21895;DHT22;11112;51.270;7.224;2023-03-14T07:42:17;11.20;99.90
21895;DHT22;11112;51.270;7.224;2023-03-14T07:44:45;11.20;99.90
21895;DHT22;11112;51.270;7.224;2023-03-14T07:47:12;11.20;99.90
21895;DHT22;11112;51.270;7.224;2023-03-14T07:49:39;11.20;99.90
21895;DHT22;11112;51.270;7.224;2023-03-14T07:52:08;11.20;99.90
21895;DHT22;11112;51.270;7.224;2023-03-14T07:54:35;11.20;99.90
21895;DHT22;11112;51.270;7.224;2023-03-14T07:57:03;11.20;99.90
21895;DHT22;11112;51.270;7.224;2023-03-14T07:59:30;11.20;99.90
21895;DHT22;11112;51.270;7.224;2023-03-14T08:01:58;11.20;99.90
21895;DHT22;11112;51.270;7.224;2023-03-14T08:04:25;11.20;99.90
21895;DHT22;11112;51.270;7.224;2023-03-14T08:06:52;11.20;99.90
21895;DHT22;11112;51.270;7.224;2023-03-14T08:09:21;11.30;99.90
21895;DHT22;11112;51.270;7.224;2023-03-14T08:11:49;11.30;99.90
21895;DHT22;11112;51.270;7.224;2023-03-14T08:14:16;11.30;99.90
21895;DHT22;11112;51.270;7.224;2023-03-14T08:16:43;11.30;99.90
21895;DHT22;11112;51.270;7.224;2023-03-14T08:19:12;11.30;99.90
21895;DHT22;11112;51.270;7.224;2023-03-14T08:21:42;11.30;99.90
21895;DHT22;11112;51.270;7.224;2023-03-14T08:24:09;11.30;99.90
21895;DHT22;11112;51.270;7.224;2023-03-14T08:26:38;11.30;99.90
21895;DHT22;11112;51.270;7.224;2023-03-14T08:29:05;11.40;99.90
21895;DHT22;11112;51.270;7.224;2023-03-14T08:31:35;11.30;99.90
21895;DHT22;11112;51.270;7.224;2023-03-14T08:34:02;11.30;99.90
21895;DHT22;11112;51.270;7.224;2023-03-14T08:36:32;11.30;99.90
21895;DHT22;11112;51.270;7.224;2023-03-14T08:38:59;11.30;99.90
21895;DHT22;11112;51.270;7.224;2023-03-14T08:41:26;11.30;99.90
21895;DHT22;11112;51.270;7.224;2023-03-14T08:43:56;11.40;99.90
21895;DHT22;11112;51.270;7.224;2023-03-14T08:46:23;11.40;99.90
21895;DHT22;11112;51.270;7.224;2023-03-14T08:48:51;11.30;99.90
21895;DHT22;11112;51.270;7.224;2023-03-14T08:51:18;11.40;99.90
21895;DHT22;11112;51.270;7.224;2023-03-14T08:53:45;11.40;99.90
21895;DHT22;11112;51.270;7.224;2023-03-14T08:56:12;11.40;99.90
21895;DHT22;11112;51.270;7.224;2023-03-14T08:58:41;11.40;99.90
21895;DHT22;11112;51.270;7.224;2023-03-14T09:01:11;11.40;99.90
21895;DHT22;11112;51.270;7.224;2023-03-14T09:03:38;11.40;99.90
21895;DHT22;11112;51.270;7.224;2023-03-14T09:06:09;11.40;99.90
21895;DHT22;11112;51.270;7.224;2023-03-14T09:08:37;11.40;99.90
21895;DHT22;11112;51.270;7.224;2023-03-14T09:11:07;11.50;99.90
21895;DHT22;11112;51.270;7.224;2023-03-14T09:13:35;11.50;99.90
21895;DHT22;11112;51.270;7.224;2023-03-14T09:16:02;11.50;99.90
21895;DHT22;11112;51.270;7.224;2023-03-14T09:18:31;11.50;99.90
21895;DHT22;11112;51.270;7.224;2023-03-14T09:20:58;11.40;99.90
21895;DHT22;11112;51.270;7.224;2023-03-14T09:23:25;11.50;99.90
21895;DHT22;11112;51.270;7.224;2023-03-14T09:25:54;11.50;99.90
21895;DHT22;11112;51.270;7.224;2023-03-14T09:28:22;11.40;99.90
21895;DHT22;11112;51.270;7.224;2023-03-14T09:30:50;11.40;99.90
21895;DHT22;11112;51.270;7.224;2023-03-14T09:33:18;11.40;99.90
21895;DHT22;11112;51.270;7.224;2023-03-14T09:35:47;11.40;99.90
21895;DHT22;11112;51.270;7.224;2023-03-14T09:38:16;11.50;99.90
21895;DHT22;11112;51.270;7.224;2023-03-14T09:40:43;11.50;99.90
21895;DHT22;11112;51.270;7.224;2023-03-14T09:43:11;11.40;99.90
21895;DHT22;11112;51.270;7.224;2023-03-14T09:45:44;11.40;99.90
21895;DHT22;11112;51.270;7.224;2023-03-14T09:48:17;11.40;99.90
21895;DHT22;11112;51.270;7.224;2023-03-14T09:50:52;11.40;99.90
21895;DHT22;11112;51.270;7.224;2023-03-14T09:53:25;11.40;99.90
21895;DHT22;11112;51.270;7.224;2023-03-14T09:55:57;11.30;99.90
21895;DHT22;11112;51.270;7.224;2023-03-14T09:58:29;11.30;99.90
21895;DHT22;11112;51.270;7.224;2023-03-14T10:00:58;11.20;99.90
21895;DHT22;11112;51.270;7.224;2023-03-14T10:03:30;11.20;99.90
21895;DHT22;11112;51.270;7.224;2023-03-14T10:06:00;11.20;99.90
21895;DHT22;11112;51.270;7.224;2023-03-14T10:08:29;11.10;99.90
21895;DHT22;11112;51.270;7.224;2023-03-14T10:10:58;11.10;99.90
21895;DHT22;11112;51.270;7.224;2023-03-14T10:13:28;11.10;99.90
21895;DHT22;11112;51.270;7.224;2023-03-14T10:16:01;11.10;99.90
21895;DHT22;11112;51.270;7.224;2023-03-14T10:18:32;11.00;99.90
21895;DHT22;11112;51.270;7.224;2023-03-14T10:21:06;11.00;99.90
21895;DHT22;11112;51.270;7.224;2023-03-14T10:23:37;11.00;99.90
21895;DHT22;11112;51.270;7.224;2023-03-14T10:26:08;11.00;99.90
21895;DHT22;11112;51.270;7.224;2023-03-14T10:28:45;11.00;99.90
21895;DHT22;11112;51.270;7.224;2023-03-14T10:31:14;11.00;99.90
21895;DHT22;11112;51.270;7.224;2023-03-14T10:33:41;11.00;99.90
21895;DHT22;11112;51.270;7.224;2023-03-14T10:36:19;11.00;99.90
21895;DHT22;11112;51.270;7.224;2023-03-14T10:38:47;11.00;99.90
21895;DHT22;11112;51.270;7.224;2023-03-14T10:41:19;11.00;99.90
21895;DHT22;11112;51.270;7.224;2023-03-14T10:43:57;10.90;99.90
21895;DHT22;11112;51.270;7.224;2023-03-14T10:46:29;10.90;99.90
21895;DHT22;11112;51.270;7.224;2023-03-14T10:48:57;10.90;99.90
21895;DHT22;11112;51.270;7.224;2023-03-14T10:51:28;10.90;99.90
21895;DHT22;11112;51.270;7.224;2023-03-14T10:53:59;10.90;99.90
21895;DHT22;11112;51.270;7.224;2023-03-14T10:56:34;10.90;99.90
21895;DHT22;11112;51.270;7.224;2023-03-14T10:59:03;10.80;99.90
21895;DHT22;11112;51.270;7.224;2023-03-14T11:01:40;10.80;99.90
21895;DHT22;11112;51.270;7.224;2023-03-14T11:04:20;10.70;99.90
21895;DHT22;11112;51.270;7.224;2023-03-14T11:07:01;10.70;99.90
21895;DHT22;11112;51.270;7.224;2023-03-14T11:09:41;10.70;99.90
21895;DHT22;11112;51.270;7.224;2023-03-14T11:12:29;10.70;99.90
21895;DHT22;11112;51.270;7.224;2023-03-14T11:15:09;10.70;99.90
21895;DHT22;11112;51.270;7.224;2023-03-14T11:17:51;10.70;99.90
21895;DHT22;11112;51.270;7.224;2023-03-14T11:20:46;10.70;99.90
21895;DHT22;11112;51.270;7.224;2023-03-14T11:23:41;10.60;99.90
21895;DHT22;11112;51.270;7.224;2023-03-14T11:26:42;10.50;99.90
21895;DHT22;11112;51.270;7.224;2023-03-14T11:29:39;10.30;99.90
21895;DHT22;11112;51.270;7.224;2023-03-14T11:32:19;10.30;99.90
21895;DHT22;11112;51.270;7.224;2023-03-14T11:35:04;10.30;99.90
21895;DHT22;11112;51.270;7.224;2023-03-14T11:38:12;10.30;99.90
21895;DHT22;11112;51.270;7.224;2023-03-14T11:41:00;10.30;99.90
21895;DHT22;11112;51.270;7.224;2023-03-14T11:43:51;10.30;99.90
21895;DHT22;11112;51.270;7.224;2023-03-14T11:46:48;10.40;99.90
21895;DHT22;11112;51.270;7.224;2023-03-14T11:49:51;10.30;99.90
21895;DHT22;11112;51.270;7.224;2023-03-14T11:52:41;10.30;99.90
21895;DHT22;11112;51.270;7.224;2023-03-14T11:55:26;10.20;99.90
21895;DHT22;11112;51.270;7.224;2023-03-14T11:58:20;10.10;99.90
21895;DHT22;11112;51.270;7.224;2023-03-14T12:01:05;10.10;99.90
21895;DHT22;11112;51.270;7.224;2023-03-14T12:03:54;10.00;99.90
21895;DHT22;11112;51.270;7.224;2023-03-14T12:06:30;10.00;99.90
21895;DHT22;11112;51.270;7.224;2023-03-14T12:08:58;9.90;99.90
21895;DHT22;11112;51.270;7.224;2023-03-14T12:11:36;9.80;99.90
21895;DHT22;11112;51.270;7.224;2023-03-14T12:14:20;9.70;99.90
21895;DHT22;11112;51.270;7.224;2023-03-14T12:16:52;9.90;99.90
21895;DHT22;11112;51.270;7.224;2023-03-14T12:19:34;9.90;99.90
21895;DHT22;11112;51.270;7.224;2023-03-14T12:22:21;9.90;99.90
21895;DHT22;11112;51.270;7.224;2023-03-14T12:25:01;9.90;99.90
21895;DHT22;11112;51.270;7.224;2023-03-14T12:27:47;10.00;99.90
21895;DHT22;11112;51.270;7.224;2023-03-14T12:30:45;10.00;99.90
21895;DHT22;11112;51.270;7.224;2023-03-14T12:33:30;9.80;99.90
21895;DHT22;11112;51.270;7.224;2023-03-14T12:36:11;9.80;99.90
21895;DHT22;11112;51.270;7.224;2023-03-14T12:41:52;9.80;99.90
21895;DHT22;11112;51.270;7.224;2023-03-14T12:44:45;9.80;99.90
21895;DHT22;11112;51.270;7.224;2023-03-14T12:50:43;9.80;99.90
21895;DHT22;11112;51.270;7.224;2023-03-14T12:59:35;10.00;99.90
21895;DHT22;11112;51.270;7.224;2023-03-14T13:02:24;10.10;99.90
21895;DHT22;11112;51.270;7.224;2023-03-14T13:05:03;10.10;99.90
21895;DHT22;11112;51.270;7.224;2023-03-14T13:10:42;10.30;99.90
21895;DHT22;11112;51.270;7.224;2023-03-14T13:13:20;10.40;99.90
21895;DHT22;11112;51.270;7.224;2023-03-14T13:15:53;10.30;99.80
21895;DHT22;11112;51.270;7.224;2023-03-14T13:18:28;10.20;99.90
21895;DHT22;11112;51.270;7.224;2023-03-14T13:21:03;10.30;99.90
21895;DHT22;11112;51.270;7.224;2023-03-14T13:23:35;10.30;99.90
21895;DHT22;11112;51.270;7.224;2023-03-14T13:26:09;10.30;99.90
21895;DHT22;11112;51.270;7.224;2023-03-14T13:28:40;10.30;99.90
21895;DHT22;11112;51.270;7.224;2023-03-14T13:31:23;10.10;99.90
21895;DHT22;11112;51.270;7.224;2023-03-14T13:34:10;10.00;99.90
21895;DHT22;11112;51.270;7.224;2023-03-14T13:36:39;9.80;99.90
21895;DHT22;11112;51.270;7.224;2023-03-14T13:39:10;9.80;99.90
21895;DHT22;11112;51.270;7.224;2023-03-14T13:41:41;9.80;99.90
21895;DHT22;11112;51.270;7.224;2023-03-14T13:44:13;9.70;99.90
21895;DHT22;11112;51.270;7.224;2023-03-14T13:46:43;9.70;99.90
21895;DHT22;11112;51.270;7.224;2023-03-14T13:49:21;9.70;99.90
21895;DHT22;11112;51.270;7.224;2023-03-14T13:51:59;9.70;99.90
21895;DHT22;11112;51.270;7.224;2023-03-14T13:54:27;9.70;99.90
21895;DHT22;11112;51.270;7.224;2023-03-14T13:56:59;9.80;99.90
21895;DHT22;11112;51.270;7.224;2023-03-14T13:59:29;9.80;99.90
21895;DHT22;11112;51.270;7.224;2023-03-14T14:02:00;9.80;99.90
21895;DHT22;11112;51.270;7.224;2023-03-14T14:04:33;9.80;99.90
21895;DHT22;11112;51.270;7.224;2023-03-14T14:07:10;9.80;99.90
21895;DHT22;11112;51.270;7.224;2023-03-14T14:09:43;9.80;99.90
21895;DHT22;11112;51.270;7.224;2023-03-14T14:12:14;9.80;99.90
21895;DHT22;11112;51.270;7.224;2023-03-14T14:14:47;9.80;99.90
21895;DHT22;11112;51.270;7.224;2023-03-14T14:17:18;10.00;99.90
21895;DHT22;11112;51.270;7.224;2023-03-14T14:19:47;9.90;99.80
21895;DHT22;11112;51.270;7.224;2023-03-14T14:22:17;9.90;99.90
21895;DHT22;11112;51.270;7.224;2023-03-14T14:24:45;10.00;99.90
21895;DHT22;11112;51.270;7.224;2023-03-14T14:27:14;10.00;99.90
21895;DHT22;11112;51.270;7.224;2023-03-14T14:29:44;10.00;99.90
21895;DHT22;11112;51.270;7.224;2023-03-14T14:32:25;10.00;99.30
21895;DHT22;11112;51.270;7.224;2023-03-14T14:34:58;9.90;98.80
21895;DHT22;11112;51.270;7.224;2023-03-14T14:37:28;9.80;98.60
21895;DHT22;11112;51.270;7.224;2023-03-14T14:39:59;9.80;98.50
21895;DHT22;11112;51.270;7.224;2023-03-14T14:42:34;9.80;98.40
21895;DHT22;11112;51.270;7.224;2023-03-14T14:45:03;9.70;98.00
21895;DHT22;11112;51.270;7.224;2023-03-14T14:47:32;9.70;98.80
21895;DHT22;11112;51.270;7.224;2023-03-14T14:50:03;9.70;98.40
21895;DHT22;11112;51.270;7.224;2023-03-14T14:52:36;9.70;98.40
21895;DHT22;11112;51.270;7.224;2023-03-14T14:55:16;9.70;97.70
21895;DHT22;11112;51.270;7.224;2023-03-14T14:57:49;9.70;98.10
21895;DHT22;11112;51.270;7.224;2023-03-14T15:00:20;9.80;98.40
21895;DHT22;11112;51.270;7.224;2023-03-14T15:02:50;9.80;98.40
21895;DHT22;11112;51.270;7.224;2023-03-14T15:05:20;9.90;98.80
21895;DHT22;11112;51.270;7.224;2023-03-14T15:07:50;9.90;96.70
21895;DHT22;11112;51.270;7.224;2023-03-14T15:10:24;9.80;95.40
21895;DHT22;11112;51.270;7.224;2023-03-14T15:12:52;9.70;95.10
21895;DHT22;11112;51.270;7.224;2023-03-14T15:15:20;9.70;94.00
21895;DHT22;11112;51.270;7.224;2023-03-14T15:17:47;9.70;91.90
21895;DHT22;11112;51.270;7.224;2023-03-14T15:20:17;9.70;91.40
21895;DHT22;11112;51.270;7.224;2023-03-14T15:22:45;9.70;92.00
21895;DHT22;11112;51.270;7.224;2023-03-14T15:25:17;9.80;91.10
21895;DHT22;11112;51.270;7.224;2023-03-14T15:27:44;9.80;91.00
21895;DHT22;11112;51.270;7.224;2023-03-14T15:30:13;9.80;90.80
21895;DHT22;11112;51.270;7.224;2023-03-14T15:32:43;9.80;90.90
21895;DHT22;11112;51.270;7.224;2023-03-14T15:35:10;9.90;89.60
21895;DHT22;11112;51.270;7.224;2023-03-14T15:37:40;9.80;89.10
21895;DHT22;11112;51.270;7.224;2023-03-14T15:40:13;9.80;88.50
21895;DHT22;11112;51.270;7.224;2023-03-14T15:42:42;9.80;87.80
21895;DHT22;11112;51.270;7.224;2023-03-14T15:45:11;9.80;87.10
21895;DHT22;11112;51.270;7.224;2023-03-14T15:47:38;9.80;87.00
21895;DHT22;11112;51.270;7.224;2023-03-14T15:50:08;9.80;86.50
21895;DHT22;11112;51.270;7.224;2023-03-14T15:52:36;9.80;84.00
21895;DHT22;11112;51.270;7.224;2023-03-14T15:55:04;9.70;82.60
21895;DHT22;11112;51.270;7.224;2023-03-14T15:57:34;9.70;84.20
21895;DHT22;11112;51.270;7.224;2023-03-14T16:00:04;9.80;85.80
21895;DHT22;11112;51.270;7.224;2023-03-14T16:02:36;9.80;82.90
21895;DHT22;11112;51.270;7.224;2023-03-14T16:05:07;9.80;82.00
21895;DHT22;11112;51.270;7.224;2023-03-14T16:07:35;9.70;80.70
21895;DHT22;11112;51.270;7.224;2023-03-14T16:10:04;9.60;79.50
21895;DHT22;11112;51.270;7.224;2023-03-14T16:12:36;9.60;78.80
21895;DHT22;11112;51.270;7.224;2023-03-14T16:15:04;9.60;77.50
21895;DHT22;11112;51.270;7.224;2023-03-14T16:17:34;9.60;79.00
21895;DHT22;11112;51.270;7.224;2023-03-14T16:20:03;9.60;76.90